Du har inga inställningar för hoppväder.nu

Hoppväder.nu

Senast uppdaterat 05:29

UTC-tid

2020-11-26 kl. 04:29


Sol och måne

Solen går upp 8:26 och går ner 14:51 (beräknade cirkatider)
Nästa fullmåne blir om 4 dagar (2020-11-30)

METAR

ESSA (Arlanda, Stockholm)
(9 minuter sedan)
ESSA 260420Z 24005KT 9000 -RA BKN005 07/07 Q1007 RWY 01R DAMP 51-100 PCT BA GOOD RWY 08 DAMP 51-100 PCT BA GOOD TEMPO 4000 RADZ BKN010=



ESSD (Borlänge)
(9 minuter sedan)
ESSD 260420Z AUTO 24006KT 9999 FEW150/// 04/03 Q1006=



EFMA (Mariehamn)
(9 minuter sedan)
EFMA 260420Z AUTO 24003KT 200V270 9999 OVC048 07/07 Q1006=



ESOW (Västerås)
(9 minuter sedan)
ESOW 260420Z AUTO 21006KT 7000 -DZ OVC005/// 08/07 Q1007=






TAF

ESSA (Arlanda, Stockholm)
(299 minuter sedan)
ESSA 252330Z 2600/2624 23012KT 9999 BKN017 BECMG 2600/2602 BKN012 TEMPO 2600/2607 4000 RADZ BR BKN008 BECMG 2607/2610 33010KT FEW020=



ESSD (Borlänge)
ESSD



EFMA (Mariehamn)
(26 minuter sedan)
EFMA AMD 260403Z 2604/2612 25007KT 9999 BKN005 BECMG 2604/2605 BKN004 BECMG 2605/2607 CAVOK=



ESOW (Västerås)
ESOW





Kodnycklar till TAF och METAR






LHP

(Gryttjom är område se34e i Delområde 1)

Prognos är inte uppdaterad






Preliminär prognos